sensor_id;sensor_type;location;lat;lon;timestamp;temperature;humidity
3067;DHT22;1544;48.834;9.194;2022-10-31T00:00:10;12.80;76.90
3067;DHT22;1544;48.834;9.194;2022-10-31T00:02:46;12.70;77.00
3067;DHT22;1544;48.834;9.194;2022-10-31T00:05:21;12.70;77.10
3067;DHT22;1544;48.834;9.194;2022-10-31T00:07:56;12.70;77.20
3067;DHT22;1544;48.834;9.194;2022-10-31T00:10:31;12.70;77.40
3067;DHT22;1544;48.834;9.194;2022-10-31T00:13:06;12.70;77.50
3067;DHT22;1544;48.834;9.194;2022-10-31T00:15:42;12.60;77.60
3067;DHT22;1544;48.834;9.194;2022-10-31T00:18:17;12.70;77.80
3067;DHT22;1544;48.834;9.194;2022-10-31T00:21:01;12.60;77.80
3067;DHT22;1544;48.834;9.194;2022-10-31T00:23:37;12.60;77.90
3067;DHT22;1544;48.834;9.194;2022-10-31T00:26:12;12.60;78.00
3067;DHT22;1544;48.834;9.194;2022-10-31T00:28:47;12.60;78.10
3067;DHT22;1544;48.834;9.194;2022-10-31T00:31:22;12.60;78.10
3067;DHT22;1544;48.834;9.194;2022-10-31T00:33:57;12.50;78.10
3067;DHT22;1544;48.834;9.194;2022-10-31T00:36:33;12.50;78.20
3067;DHT22;1544;48.834;9.194;2022-10-31T00:39:09;12.50;78.30
3067;DHT22;1544;48.834;9.194;2022-10-31T00:41:44;12.50;78.40
3067;DHT22;1544;48.834;9.194;2022-10-31T00:44:19;12.50;78.50
3067;DHT22;1544;48.834;9.194;2022-10-31T00:46:54;12.40;78.40
3067;DHT22;1544;48.834;9.194;2022-10-31T00:49:29;12.40;78.70
3067;DHT22;1544;48.834;9.194;2022-10-31T00:52:04;12.40;79.10
3067;DHT22;1544;48.834;9.194;2022-10-31T00:54:39;12.40;79.20
3067;DHT22;1544;48.834;9.194;2022-10-31T00:57:14;12.40;79.30
3067;DHT22;1544;48.834;9.194;2022-10-31T00:59:49;12.40;79.40
3067;DHT22;1544;48.834;9.194;2022-10-31T01:02:24;12.40;79.90
3067;DHT22;1544;48.834;9.194;2022-10-31T01:04:59;12.40;80.40
3067;DHT22;1544;48.834;9.194;2022-10-31T01:07:38;12.40;80.70
3067;DHT22;1544;48.834;9.194;2022-10-31T01:10:16;12.50;81.10
3067;DHT22;1544;48.834;9.194;2022-10-31T01:12:52;12.50;81.20
3067;DHT22;1544;48.834;9.194;2022-10-31T01:15:29;12.50;81.10
3067;DHT22;1544;48.834;9.194;2022-10-31T01:18:04;12.50;81.40
3067;DHT22;1544;48.834;9.194;2022-10-31T01:20:39;12.50;81.30
3067;DHT22;1544;48.834;9.194;2022-10-31T01:23:13;12.50;81.20
3067;DHT22;1544;48.834;9.194;2022-10-31T01:25:48;12.50;81.50
3067;DHT22;1544;48.834;9.194;2022-10-31T01:28:23;12.50;81.70
3067;DHT22;1544;48.834;9.194;2022-10-31T01:31:04;12.50;81.80
3067;DHT22;1544;48.834;9.194;2022-10-31T01:33:41;12.50;82.20
3067;DHT22;1544;48.834;9.194;2022-10-31T01:36:21;12.50;82.50
3067;DHT22;1544;48.834;9.194;2022-10-31T01:39:02;12.50;82.60
3067;DHT22;1544;48.834;9.194;2022-10-31T01:41:45;12.60;82.80
3067;DHT22;1544;48.834;9.194;2022-10-31T01:47:11;12.60;82.90
3067;DHT22;1544;48.834;9.194;2022-10-31T01:49:52;12.60;83.10
3067;DHT22;1544;48.834;9.194;2022-10-31T01:52:41;12.60;83.20
3067;DHT22;1544;48.834;9.194;2022-10-31T01:55:20;12.70;83.30
3067;DHT22;1544;48.834;9.194;2022-10-31T01:58:30;12.60;83.20
3067;DHT22;1544;48.834;9.194;2022-10-31T02:01:03;12.60;83.20
3067;DHT22;1544;48.834;9.194;2022-10-31T02:03:43;12.60;83.10
3067;DHT22;1544;48.834;9.194;2022-10-31T02:06:36;12.60;83.10
3067;DHT22;1544;48.834;9.194;2022-10-31T02:09:14;12.60;82.90
3067;DHT22;1544;48.834;9.194;2022-10-31T02:11:55;12.60;82.80
3067;DHT22;1544;48.834;9.194;2022-10-31T02:14:33;12.50;82.60
3067;DHT22;1544;48.834;9.194;2022-10-31T02:17:10;12.50;82.60
3067;DHT22;1544;48.834;9.194;2022-10-31T02:20:15;12.50;82.40
3067;DHT22;1544;48.834;9.194;2022-10-31T02:23:14;12.50;82.30
3067;DHT22;1544;48.834;9.194;2022-10-31T02:32:07;12.40;82.10
3067;DHT22;1544;48.834;9.194;2022-10-31T02:34:55;12.40;82.10
3067;DHT22;1544;48.834;9.194;2022-10-31T02:41:24;12.30;81.90
3067;DHT22;1544;48.834;9.194;2022-10-31T02:47:18;12.20;82.10
3067;DHT22;1544;48.834;9.194;2022-10-31T02:50:25;12.20;82.20
3067;DHT22;1544;48.834;9.194;2022-10-31T02:53:01;12.20;82.40
3067;DHT22;1544;48.834;9.194;2022-10-31T02:58:15;12.20;82.50
3067;DHT22;1544;48.834;9.194;2022-10-31T03:01:09;12.10;82.30
3067;DHT22;1544;48.834;9.194;2022-10-31T03:04:16;12.10;82.40
3067;DHT22;1544;48.834;9.194;2022-10-31T03:13:57;12.10;82.60
3067;DHT22;1544;48.834;9.194;2022-10-31T03:16:46;12.00;82.50
3067;DHT22;1544;48.834;9.194;2022-10-31T03:19:26;12.00;82.50
3067;DHT22;1544;48.834;9.194;2022-10-31T03:24:47;12.00;82.50
3067;DHT22;1544;48.834;9.194;2022-10-31T03:27:30;12.00;82.40
3067;DHT22;1544;48.834;9.194;2022-10-31T03:30:07;12.00;82.40
3067;DHT22;1544;48.834;9.194;2022-10-31T03:33:01;12.00;82.30
3067;DHT22;1544;48.834;9.194;2022-10-31T03:35:41;11.90;82.30
3067;DHT22;1544;48.834;9.194;2022-10-31T03:38:20;11.90;82.30
3067;DHT22;1544;48.834;9.194;2022-10-31T03:40:55;11.90;82.50
3067;DHT22;1544;48.834;9.194;2022-10-31T03:43:38;11.90;82.50
3067;DHT22;1544;48.834;9.194;2022-10-31T03:46:17;11.90;82.50
3067;DHT22;1544;48.834;9.194;2022-10-31T03:48:52;11.90;82.40
3067;DHT22;1544;48.834;9.194;2022-10-31T03:51:36;11.90;82.40
3067;DHT22;1544;48.834;9.194;2022-10-31T03:54:29;11.90;82.40
3067;DHT22;1544;48.834;9.194;2022-10-31T03:57:24;11.90;82.30
3067;DHT22;1544;48.834;9.194;2022-10-31T04:00:06;11.90;82.20
3067;DHT22;1544;48.834;9.194;2022-10-31T04:03:00;11.90;82.10
3067;DHT22;1544;48.834;9.194;2022-10-31T04:05:40;11.90;81.90
3067;DHT22;1544;48.834;9.194;2022-10-31T04:08:20;11.90;81.60
3067;DHT22;1544;48.834;9.194;2022-10-31T04:11:03;11.80;81.30
3067;DHT22;1544;48.834;9.194;2022-10-31T04:13:40;11.80;81.10
3067;DHT22;1544;48.834;9.194;2022-10-31T04:16:21;11.80;81.00
3067;DHT22;1544;48.834;9.194;2022-10-31T04:18:57;11.80;80.90
3067;DHT22;1544;48.834;9.194;2022-10-31T04:21:33;11.70;80.80
3067;DHT22;1544;48.834;9.194;2022-10-31T04:24:09;11.70;80.80
3067;DHT22;1544;48.834;9.194;2022-10-31T04:26:44;11.70;80.70
3067;DHT22;1544;48.834;9.194;2022-10-31T04:29:20;11.60;80.60
3067;DHT22;1544;48.834;9.194;2022-10-31T04:31:55;11.60;80.80
3067;DHT22;1544;48.834;9.194;2022-10-31T04:34:29;11.60;81.00
3067;DHT22;1544;48.834;9.194;2022-10-31T04:37:04;11.60;81.10
3067;DHT22;1544;48.834;9.194;2022-10-31T04:39:40;11.60;81.10
3067;DHT22;1544;48.834;9.194;2022-10-31T04:42:41;11.50;81.00
3067;DHT22;1544;48.834;9.194;2022-10-31T04:45:16;11.50;80.90
3067;DHT22;1544;48.834;9.194;2022-10-31T04:47:57;11.50;80.90
3067;DHT22;1544;48.834;9.194;2022-10-31T04:50:33;11.40;80.80
3067;DHT22;1544;48.834;9.194;2022-10-31T04:53:08;11.40;80.80
3067;DHT22;1544;48.834;9.194;2022-10-31T04:55:55;11.30;80.60
3067;DHT22;1544;48.834;9.194;2022-10-31T04:58:38;11.30;80.60
3067;DHT22;1544;48.834;9.194;2022-10-31T05:01:16;11.30;80.60
3067;DHT22;1544;48.834;9.194;2022-10-31T05:03:52;11.30;80.60
3067;DHT22;1544;48.834;9.194;2022-10-31T05:06:27;11.30;80.60
3067;DHT22;1544;48.834;9.194;2022-10-31T05:09:02;11.20;80.50
3067;DHT22;1544;48.834;9.194;2022-10-31T05:11:38;11.20;80.50
3067;DHT22;1544;48.834;9.194;2022-10-31T05:14:26;11.20;80.60
3067;DHT22;1544;48.834;9.194;2022-10-31T05:17:21;11.20;80.60
3067;DHT22;1544;48.834;9.194;2022-10-31T05:20:25;11.20;80.70
3067;DHT22;1544;48.834;9.194;2022-10-31T05:23:16;11.20;81.00
3067;DHT22;1544;48.834;9.194;2022-10-31T05:25:51;11.20;81.30
3067;DHT22;1544;48.834;9.194;2022-10-31T05:28:28;11.20;81.50
3067;DHT22;1544;48.834;9.194;2022-10-31T05:31:04;11.20;81.60
3067;DHT22;1544;48.834;9.194;2022-10-31T05:33:39;11.20;81.70
3067;DHT22;1544;48.834;9.194;2022-10-31T05:36:46;11.20;81.70
3067;DHT22;1544;48.834;9.194;2022-10-31T05:39:23;11.20;81.60
3067;DHT22;1544;48.834;9.194;2022-10-31T05:42:02;11.20;81.50
3067;DHT22;1544;48.834;9.194;2022-10-31T05:44:37;11.20;81.40
3067;DHT22;1544;48.834;9.194;2022-10-31T05:47:29;11.10;81.50
3067;DHT22;1544;48.834;9.194;2022-10-31T05:50:37;11.20;81.70
3067;DHT22;1544;48.834;9.194;2022-10-31T05:53:18;11.20;81.80
3067;DHT22;1544;48.834;9.194;2022-10-31T05:55:53;11.10;82.00
3067;DHT22;1544;48.834;9.194;2022-10-31T05:58:29;11.10;82.00
3067;DHT22;1544;48.834;9.194;2022-10-31T06:01:09;11.10;82.00
3067;DHT22;1544;48.834;9.194;2022-10-31T06:03:45;11.10;82.20
3067;DHT22;1544;48.834;9.194;2022-10-31T06:06:24;11.10;81.80
3067;DHT22;1544;48.834;9.194;2022-10-31T06:08:59;11.10;81.80
3067;DHT22;1544;48.834;9.194;2022-10-31T06:11:36;11.10;81.90
3067;DHT22;1544;48.834;9.194;2022-10-31T06:14:11;11.10;82.00
3067;DHT22;1544;48.834;9.194;2022-10-31T06:16:58;11.10;82.00
3067;DHT22;1544;48.834;9.194;2022-10-31T06:19:58;11.10;82.10
3067;DHT22;1544;48.834;9.194;2022-10-31T06:22:34;11.20;82.30
3067;DHT22;1544;48.834;9.194;2022-10-31T06:25:09;11.20;82.60
3067;DHT22;1544;48.834;9.194;2022-10-31T06:27:48;11.20;82.70
3067;DHT22;1544;48.834;9.194;2022-10-31T06:30:23;11.20;82.90
3067;DHT22;1544;48.834;9.194;2022-10-31T06:33:05;11.20;82.90
3067;DHT22;1544;48.834;9.194;2022-10-31T06:35:46;11.20;83.00
3067;DHT22;1544;48.834;9.194;2022-10-31T06:38:25;11.30;83.10
3067;DHT22;1544;48.834;9.194;2022-10-31T06:41:03;11.30;83.20
3067;DHT22;1544;48.834;9.194;2022-10-31T06:43:49;11.30;83.30
3067;DHT22;1544;48.834;9.194;2022-10-31T06:46:46;11.30;83.50
3067;DHT22;1544;48.834;9.194;2022-10-31T06:49:41;11.40;83.40
3067;DHT22;1544;48.834;9.194;2022-10-31T06:52:20;11.40;83.30
3067;DHT22;1544;48.834;9.194;2022-10-31T06:54:55;11.40;83.60
3067;DHT22;1544;48.834;9.194;2022-10-31T06:57:30;11.50;83.00
3067;DHT22;1544;48.834;9.194;2022-10-31T07:00:06;11.50;82.90
3067;DHT22;1544;48.834;9.194;2022-10-31T07:03:06;11.50;82.80
3067;DHT22;1544;48.834;9.194;2022-10-31T07:05:44;11.60;82.70
3067;DHT22;1544;48.834;9.194;2022-10-31T07:08:19;11.60;82.50
3067;DHT22;1544;48.834;9.194;2022-10-31T07:10:56;11.70;82.50
3067;DHT22;1544;48.834;9.194;2022-10-31T07:13:32;11.70;82.60
3067;DHT22;1544;48.834;9.194;2022-10-31T07:16:11;11.80;82.60
3067;DHT22;1544;48.834;9.194;2022-10-31T07:18:48;11.80;82.40
3067;DHT22;1544;48.834;9.194;2022-10-31T07:21:24;11.90;82.30
3067;DHT22;1544;48.834;9.194;2022-10-31T07:23:59;11.90;82.00
3067;DHT22;1544;48.834;9.194;2022-10-31T07:27:12;12.00;82.10
3067;DHT22;1544;48.834;9.194;2022-10-31T07:29:47;12.00;81.80
3067;DHT22;1544;48.834;9.194;2022-10-31T07:32:23;12.10;81.60
3067;DHT22;1544;48.834;9.194;2022-10-31T07:35:08;12.10;81.50
3067;DHT22;1544;48.834;9.194;2022-10-31T07:37:53;12.10;81.40
3067;DHT22;1544;48.834;9.194;2022-10-31T07:40:29;12.20;81.20
3067;DHT22;1544;48.834;9.194;2022-10-31T07:43:05;12.30;81.00
3067;DHT22;1544;48.834;9.194;2022-10-31T07:46:24;12.30;80.70
3067;DHT22;1544;48.834;9.194;2022-10-31T07:49:22;12.40;80.50
3067;DHT22;1544;48.834;9.194;2022-10-31T07:52:18;12.40;79.90
3067;DHT22;1544;48.834;9.194;2022-10-31T07:55:22;12.50;79.70
3067;DHT22;1544;48.834;9.194;2022-10-31T07:58:05;12.50;79.70
3067;DHT22;1544;48.834;9.194;2022-10-31T08:00:46;12.60;79.60
3067;DHT22;1544;48.834;9.194;2022-10-31T08:03:35;12.60;79.50
3067;DHT22;1544;48.834;9.194;2022-10-31T08:06:28;12.70;79.40
3067;DHT22;1544;48.834;9.194;2022-10-31T08:09:06;12.80;79.00
3067;DHT22;1544;48.834;9.194;2022-10-31T08:11:41;12.90;78.80
3067;DHT22;1544;48.834;9.194;2022-10-31T08:14:16;12.90;78.50
3067;DHT22;1544;48.834;9.194;2022-10-31T08:16:52;13.00;78.40
3067;DHT22;1544;48.834;9.194;2022-10-31T08:19:28;13.10;78.20
3067;DHT22;1544;48.834;9.194;2022-10-31T08:22:03;13.20;77.80
3067;DHT22;1544;48.834;9.194;2022-10-31T08:24:38;13.30;77.40
3067;DHT22;1544;48.834;9.194;2022-10-31T08:27:19;13.30;76.60
3067;DHT22;1544;48.834;9.194;2022-10-31T08:29:54;13.40;76.30
3067;DHT22;1544;48.834;9.194;2022-10-31T08:32:30;13.50;76.00
3067;DHT22;1544;48.834;9.194;2022-10-31T08:35:05;13.60;75.80
3067;DHT22;1544;48.834;9.194;2022-10-31T08:37:59;13.70;75.50
3067;DHT22;1544;48.834;9.194;2022-10-31T08:40:34;13.80;74.70
3067;DHT22;1544;48.834;9.194;2022-10-31T08:43:15;13.80;73.90
3067;DHT22;1544;48.834;9.194;2022-10-31T08:45:51;13.90;73.30
3067;DHT22;1544;48.834;9.194;2022-10-31T08:48:35;14.00;72.00
3067;DHT22;1544;48.834;9.194;2022-10-31T08:51:11;14.00;71.10
3067;DHT22;1544;48.834;9.194;2022-10-31T08:53:45;14.10;70.70
3067;DHT22;1544;48.834;9.194;2022-10-31T08:56:40;14.20;70.20
3067;DHT22;1544;48.834;9.194;2022-10-31T08:59:30;14.20;69.40
3067;DHT22;1544;48.834;9.194;2022-10-31T09:02:29;14.30;68.40
3067;DHT22;1544;48.834;9.194;2022-10-31T09:05:07;14.40;67.70
3067;DHT22;1544;48.834;9.194;2022-10-31T09:07:42;14.50;67.20
3067;DHT22;1544;48.834;9.194;2022-10-31T09:10:17;14.50;66.40
3067;DHT22;1544;48.834;9.194;2022-10-31T09:13:04;14.60;65.50
3067;DHT22;1544;48.834;9.194;2022-10-31T09:16:03;14.70;65.00
3067;DHT22;1544;48.834;9.194;2022-10-31T09:18:39;14.80;64.00
3067;DHT22;1544;48.834;9.194;2022-10-31T09:21:14;14.80;63.50
3067;DHT22;1544;48.834;9.194;2022-10-31T09:23:50;14.90;62.70
3067;DHT22;1544;48.834;9.194;2022-10-31T09:26:28;15.10;62.20
3067;DHT22;1544;48.834;9.194;2022-10-31T09:29:09;15.20;61.20
3067;DHT22;1544;48.834;9.194;2022-10-31T09:31:46;15.30;60.60
3067;DHT22;1544;48.834;9.194;2022-10-31T09:34:32;15.40;59.00
3067;DHT22;1544;48.834;9.194;2022-10-31T09:37:12;15.50;57.80
3067;DHT22;1544;48.834;9.194;2022-10-31T09:39:47;15.60;56.60
3067;DHT22;1544;48.834;9.194;2022-10-31T09:45:56;15.70;54.10
3067;DHT22;1544;48.834;9.194;2022-10-31T09:52:05;15.90;53.20
3067;DHT22;1544;48.834;9.194;2022-10-31T09:54:57;16.00;52.00
3067;DHT22;1544;48.834;9.194;2022-10-31T09:57:36;16.20;51.70
3067;DHT22;1544;48.834;9.194;2022-10-31T10:00:17;16.30;51.40
3067;DHT22;1544;48.834;9.194;2022-10-31T10:05:54;16.50;51.00
3067;DHT22;1544;48.834;9.194;2022-10-31T10:08:58;16.60;50.20
3067;DHT22;1544;48.834;9.194;2022-10-31T10:24:52;17.10;47.10
3067;DHT22;1544;48.834;9.194;2022-10-31T10:31:01;17.50;46.60
3067;DHT22;1544;48.834;9.194;2022-10-31T10:37:14;17.90;45.90
3067;DHT22;1544;48.834;9.194;2022-10-31T10:40:11;18.10;45.20
3067;DHT22;1544;48.834;9.194;2022-10-31T10:43:00;18.20;44.70
3067;DHT22;1544;48.834;9.194;2022-10-31T10:49:52;18.60;44.00
3067;DHT22;1544;48.834;9.194;2022-10-31T10:58:11;19.00;42.90
3067;DHT22;1544;48.834;9.194;2022-10-31T11:00:47;19.20;42.70
3067;DHT22;1544;48.834;9.194;2022-10-31T11:03:24;19.20;42.30
3067;DHT22;1544;48.834;9.194;2022-10-31T11:05:59;19.30;42.00
3067;DHT22;1544;48.834;9.194;2022-10-31T11:08:36;19.40;41.00
3067;DHT22;1544;48.834;9.194;2022-10-31T11:14:04;19.50;40.80
3067;DHT22;1544;48.834;9.194;2022-10-31T11:17:07;19.50;40.60
3067;DHT22;1544;48.834;9.194;2022-10-31T11:19:44;19.60;40.50
3067;DHT22;1544;48.834;9.194;2022-10-31T11:22:19;19.60;40.30
3067;DHT22;1544;48.834;9.194;2022-10-31T11:24:54;19.80;40.30
3067;DHT22;1544;48.834;9.194;2022-10-31T11:27:29;19.80;40.20
3067;DHT22;1544;48.834;9.194;2022-10-31T11:30:06;19.90;40.10
3067;DHT22;1544;48.834;9.194;2022-10-31T11:32:48;20.00;39.60
3067;DHT22;1544;48.834;9.194;2022-10-31T11:35:25;20.10;39.80
3067;DHT22;1544;48.834;9.194;2022-10-31T11:38:04;20.30;39.60
3067;DHT22;1544;48.834;9.194;2022-10-31T11:40:52;20.40;39.70
3067;DHT22;1544;48.834;9.194;2022-10-31T11:43:34;20.50;39.00
3067;DHT22;1544;48.834;9.194;2022-10-31T11:46:10;20.50;38.90
3067;DHT22;1544;48.834;9.194;2022-10-31T11:48:51;20.60;39.20
3067;DHT22;1544;48.834;9.194;2022-10-31T11:51:30;20.80;39.30
3067;DHT22;1544;48.834;9.194;2022-10-31T11:54:18;21.00;39.10
3067;DHT22;1544;48.834;9.194;2022-10-31T11:56:55;21.10;39.00
3067;DHT22;1544;48.834;9.194;2022-10-31T11:59:31;21.30;38.90
3067;DHT22;1544;48.834;9.194;2022-10-31T12:02:18;21.30;38.60
3067;DHT22;1544;48.834;9.194;2022-10-31T12:05:20;21.50;38.80
3067;DHT22;1544;48.834;9.194;2022-10-31T12:07:57;21.50;37.70
3067;DHT22;1544;48.834;9.194;2022-10-31T12:10:51;21.60;37.80
3067;DHT22;1544;48.834;9.194;2022-10-31T12:13:37;21.60;37.60
3067;DHT22;1544;48.834;9.194;2022-10-31T12:16:31;21.70;37.90
3067;DHT22;1544;48.834;9.194;2022-10-31T12:25:13;22.00;37.80
3067;DHT22;1544;48.834;9.194;2022-10-31T12:37:26;22.60;37.60
3067;DHT22;1544;48.834;9.194;2022-10-31T12:49:22;22.90;36.90
3067;DHT22;1544;48.834;9.194;2022-10-31T12:58:02;22.60;36.60
3067;DHT22;1544;48.834;9.194;2022-10-31T13:00:43;22.50;37.00
3067;DHT22;1544;48.834;9.194;2022-10-31T13:03:30;22.40;37.00
3067;DHT22;1544;48.834;9.194;2022-10-31T13:06:14;22.30;36.90
3067;DHT22;1544;48.834;9.194;2022-10-31T13:08:57;22.20;36.90
3067;DHT22;1544;48.834;9.194;2022-10-31T13:11:47;22.00;36.70
3067;DHT22;1544;48.834;9.194;2022-10-31T13:14:48;21.90;36.90
3067;DHT22;1544;48.834;9.194;2022-10-31T13:17:37;21.80;37.00
3067;DHT22;1544;48.834;9.194;2022-10-31T13:20:33;21.70;36.90
3067;DHT22;1544;48.834;9.194;2022-10-31T13:29:20;21.50;37.10
3067;DHT22;1544;48.834;9.194;2022-10-31T13:32:07;21.40;37.10
3067;DHT22;1544;48.834;9.194;2022-10-31T13:34:51;21.40;37.30
3067;DHT22;1544;48.834;9.194;2022-10-31T13:37:37;21.40;37.30
3067;DHT22;1544;48.834;9.194;2022-10-31T13:40:42;21.30;37.30
3067;DHT22;1544;48.834;9.194;2022-10-31T13:46:35;21.50;37.30
3067;DHT22;1544;48.834;9.194;2022-10-31T13:54:49;22.70;36.90
3067;DHT22;1544;48.834;9.194;2022-10-31T13:57:41;22.90;36.60
3067;DHT22;1544;48.834;9.194;2022-10-31T14:02:56;23.20;35.90
3067;DHT22;1544;48.834;9.194;2022-10-31T14:05:34;23.20;36.00
3067;DHT22;1544;48.834;9.194;2022-10-31T14:08:19;23.10;35.90
3067;DHT22;1544;48.834;9.194;2022-10-31T14:10:56;23.00;36.10
3067;DHT22;1544;48.834;9.194;2022-10-31T14:13:35;22.80;36.00
3067;DHT22;1544;48.834;9.194;2022-10-31T14:16:28;22.70;36.30
3067;DHT22;1544;48.834;9.194;2022-10-31T14:19:14;22.50;36.50
3067;DHT22;1544;48.834;9.194;2022-10-31T14:21:54;22.40;36.10
3067;DHT22;1544;48.834;9.194;2022-10-31T14:24:34;22.30;36.40
3067;DHT22;1544;48.834;9.194;2022-10-31T14:30:10;22.10;36.40
3067;DHT22;1544;48.834;9.194;2022-10-31T14:33:02;22.00;36.50
3067;DHT22;1544;48.834;9.194;2022-10-31T14:39:10;21.90;36.90
3067;DHT22;1544;48.834;9.194;2022-10-31T14:50:54;21.60;37.20
3067;DHT22;1544;48.834;9.194;2022-10-31T14:53:51;21.50;37.20
3067;DHT22;1544;48.834;9.194;2022-10-31T14:56:33;21.40;37.40
3067;DHT22;1544;48.834;9.194;2022-10-31T14:59:14;21.50;37.80
3067;DHT22;1544;48.834;9.194;2022-10-31T15:01:59;21.50;37.60
3067;DHT22;1544;48.834;9.194;2022-10-31T15:04:37;21.50;37.60
3067;DHT22;1544;48.834;9.194;2022-10-31T15:07:25;21.50;37.90
3067;DHT22;1544;48.834;9.194;2022-10-31T15:10:06;21.50;38.50
3067;DHT22;1544;48.834;9.194;2022-10-31T15:12:55;21.40;38.00
3067;DHT22;1544;48.834;9.194;2022-10-31T15:15:30;21.40;38.10
3067;DHT22;1544;48.834;9.194;2022-10-31T15:18:06;21.30;38.20
3067;DHT22;1544;48.834;9.194;2022-10-31T15:20:43;21.30;38.40
3067;DHT22;1544;48.834;9.194;2022-10-31T15:23:29;21.20;38.40
3067;DHT22;1544;48.834;9.194;2022-10-31T15:26:06;21.10;38.50
3067;DHT22;1544;48.834;9.194;2022-10-31T15:28:41;20.90;38.60
3067;DHT22;1544;48.834;9.194;2022-10-31T15:31:17;20.70;38.50
3067;DHT22;1544;48.834;9.194;2022-10-31T15:33:53;20.50;39.00
3067;DHT22;1544;48.834;9.194;2022-10-31T15:36:29;20.30;39.40
3067;DHT22;1544;48.834;9.194;2022-10-31T15:39:11;20.20;39.80
3067;DHT22;1544;48.834;9.194;2022-10-31T15:41:54;20.00;40.10
3067;DHT22;1544;48.834;9.194;2022-10-31T15:44:34;19.90;40.30
3067;DHT22;1544;48.834;9.194;2022-10-31T15:47:17;19.80;40.50
3067;DHT22;1544;48.834;9.194;2022-10-31T15:49:55;19.60;41.00
3067;DHT22;1544;48.834;9.194;2022-10-31T15:52:33;19.50;41.40
3067;DHT22;1544;48.834;9.194;2022-10-31T15:57:47;19.20;41.80
3067;DHT22;1544;48.834;9.194;2022-10-31T16:00:34;19.10;42.20
3067;DHT22;1544;48.834;9.194;2022-10-31T16:03:24;18.90;42.80
3067;DHT22;1544;48.834;9.194;2022-10-31T16:06:03;18.80;43.30
3067;DHT22;1544;48.834;9.194;2022-10-31T16:08:48;18.70;43.70
3067;DHT22;1544;48.834;9.194;2022-10-31T16:16:47;18.40;44.90
3067;DHT22;1544;48.834;9.194;2022-10-31T16:19:25;18.30;45.00
3067;DHT22;1544;48.834;9.194;2022-10-31T16:22:11;18.20;45.10
3067;DHT22;1544;48.834;9.194;2022-10-31T16:25:16;18.10;45.40
3067;DHT22;1544;48.834;9.194;2022-10-31T16:28:02;18.00;45.70
3067;DHT22;1544;48.834;9.194;2022-10-31T16:30:46;17.80;45.90
3067;DHT22;1544;48.834;9.194;2022-10-31T16:33:35;17.70;46.40
3067;DHT22;1544;48.834;9.194;2022-10-31T16:36:31;17.60;46.90
3067;DHT22;1544;48.834;9.194;2022-10-31T16:39:09;17.40;47.40
3067;DHT22;1544;48.834;9.194;2022-10-31T16:41:48;17.30;47.80
3067;DHT22;1544;48.834;9.194;2022-10-31T16:44:26;17.20;48.20
3067;DHT22;1544;48.834;9.194;2022-10-31T16:47:14;17.10;48.80
3067;DHT22;1544;48.834;9.194;2022-10-31T16:49:49;17.00;49.50
3067;DHT22;1544;48.834;9.194;2022-10-31T16:52:25;16.90;50.10
3067;DHT22;1544;48.834;9.194;2022-10-31T16:55:00;16.90;50.80
3067;DHT22;1544;48.834;9.194;2022-10-31T16:57:35;16.80;51.40
3067;DHT22;1544;48.834;9.194;2022-10-31T17:00:24;16.70;52.10
3067;DHT22;1544;48.834;9.194;2022-10-31T17:03:00;16.60;53.30
3067;DHT22;1544;48.834;9.194;2022-10-31T17:05:35;16.60;54.00
3067;DHT22;1544;48.834;9.194;2022-10-31T17:08:12;16.50;55.00
3067;DHT22;1544;48.834;9.194;2022-10-31T17:10:47;16.40;56.60
3067;DHT22;1544;48.834;9.194;2022-10-31T17:13:29;16.40;57.40
3067;DHT22;1544;48.834;9.194;2022-10-31T17:16:05;16.30;57.90
3067;DHT22;1544;48.834;9.194;2022-10-31T17:18:41;16.30;58.70
3067;DHT22;1544;48.834;9.194;2022-10-31T17:21:22;16.20;59.10
3067;DHT22;1544;48.834;9.194;2022-10-31T17:23:59;16.20;60.10
3067;DHT22;1544;48.834;9.194;2022-10-31T17:26:34;16.10;60.20
3067;DHT22;1544;48.834;9.194;2022-10-31T17:29:09;16.10;60.90
3067;DHT22;1544;48.834;9.194;2022-10-31T17:31:44;16.10;61.40
3067;DHT22;1544;48.834;9.194;2022-10-31T17:34:19;16.00;61.70
3067;DHT22;1544;48.834;9.194;2022-10-31T17:36:54;16.00;62.10
3067;DHT22;1544;48.834;9.194;2022-10-31T17:39:29;15.90;62.10
3067;DHT22;1544;48.834;9.194;2022-10-31T17:42:04;15.90;62.60
3067;DHT22;1544;48.834;9.194;2022-10-31T17:44:39;15.80;63.20
3067;DHT22;1544;48.834;9.194;2022-10-31T17:47:14;15.80;63.40
3067;DHT22;1544;48.834;9.194;2022-10-31T17:49:49;15.70;63.30
3067;DHT22;1544;48.834;9.194;2022-10-31T17:52:23;15.70;63.60
3067;DHT22;1544;48.834;9.194;2022-10-31T17:54:59;15.60;64.80
3067;DHT22;1544;48.834;9.194;2022-10-31T17:57:34;15.50;65.20
3067;DHT22;1544;48.834;9.194;2022-10-31T18:00:16;15.50;65.40
3067;DHT22;1544;48.834;9.194;2022-10-31T18:02:52;15.50;65.50
3067;DHT22;1544;48.834;9.194;2022-10-31T18:05:27;15.40;65.90
3067;DHT22;1544;48.834;9.194;2022-10-31T18:08:02;15.30;66.10
3067;DHT22;1544;48.834;9.194;2022-10-31T18:10:38;15.30;66.30
3067;DHT22;1544;48.834;9.194;2022-10-31T18:13:13;15.30;66.50
3067;DHT22;1544;48.834;9.194;2022-10-31T18:15:48;15.20;66.90
3067;DHT22;1544;48.834;9.194;2022-10-31T18:18:23;15.20;67.10
3067;DHT22;1544;48.834;9.194;2022-10-31T18:20:58;15.10;67.20
3067;DHT22;1544;48.834;9.194;2022-10-31T18:23:33;15.10;67.30
3067;DHT22;1544;48.834;9.194;2022-10-31T18:26:08;15.00;67.30
3067;DHT22;1544;48.834;9.194;2022-10-31T18:28:43;14.90;67.70
3067;DHT22;1544;48.834;9.194;2022-10-31T18:31:18;14.90;67.70
3067;DHT22;1544;48.834;9.194;2022-10-31T18:33:55;14.80;67.90
3067;DHT22;1544;48.834;9.194;2022-10-31T18:36:30;14.80;68.20
3067;DHT22;1544;48.834;9.194;2022-10-31T18:39:05;14.70;68.60
3067;DHT22;1544;48.834;9.194;2022-10-31T18:41:40;14.70;68.80
3067;DHT22;1544;48.834;9.194;2022-10-31T18:44:15;14.70;69.20
3067;DHT22;1544;48.834;9.194;2022-10-31T18:46:50;14.70;69.80
3067;DHT22;1544;48.834;9.194;2022-10-31T18:49:25;14.60;71.10
3067;DHT22;1544;48.834;9.194;2022-10-31T18:52:02;14.60;73.10
3067;DHT22;1544;48.834;9.194;2022-10-31T18:54:38;14.60;73.30
3067;DHT22;1544;48.834;9.194;2022-10-31T18:57:13;14.70;73.40
3067;DHT22;1544;48.834;9.194;2022-10-31T18:59:48;14.60;73.30
3067;DHT22;1544;48.834;9.194;2022-10-31T19:02:23;14.70;73.60
3067;DHT22;1544;48.834;9.194;2022-10-31T19:04:58;14.70;73.60
3067;DHT22;1544;48.834;9.194;2022-10-31T19:07:33;14.60;73.70
3067;DHT22;1544;48.834;9.194;2022-10-31T19:10:08;14.60;73.50
3067;DHT22;1544;48.834;9.194;2022-10-31T19:12:43;14.70;73.40
3067;DHT22;1544;48.834;9.194;2022-10-31T19:15:18;14.70;73.10
3067;DHT22;1544;48.834;9.194;2022-10-31T19:17:54;14.70;72.70
3067;DHT22;1544;48.834;9.194;2022-10-31T19:20:29;14.70;72.40
3067;DHT22;1544;48.834;9.194;2022-10-31T19:23:05;14.70;72.60
3067;DHT22;1544;48.834;9.194;2022-10-31T19:25:40;14.70;72.60
3067;DHT22;1544;48.834;9.194;2022-10-31T19:28:15;14.70;73.40
3067;DHT22;1544;48.834;9.194;2022-10-31T19:30:53;14.80;73.90
3067;DHT22;1544;48.834;9.194;2022-10-31T19:33:29;14.70;73.60
3067;DHT22;1544;48.834;9.194;2022-10-31T19:36:12;14.70;74.30
3067;DHT22;1544;48.834;9.194;2022-10-31T19:38:50;14.70;74.50
3067;DHT22;1544;48.834;9.194;2022-10-31T19:41:27;14.80;74.20
3067;DHT22;1544;48.834;9.194;2022-10-31T19:44:03;14.80;74.40
3067;DHT22;1544;48.834;9.194;2022-10-31T19:46:38;14.80;74.40
3067;DHT22;1544;48.834;9.194;2022-10-31T19:49:33;14.80;74.60
3067;DHT22;1544;48.834;9.194;2022-10-31T19:52:08;14.70;74.20